Time;durP1;ratioP1;P1;durP2;ratioP2;P2;SDS_P1;SDS_P2;PMS_P1;PMS_P2;Temp;Humidity;BMP_temperature;BMP_pressure;BME280_temperature;BME280_humidity;BME280_pressure;Samples;Min_cycle;Max_cycle;Signal;HPM_P1;HPM_P2
2022/01/30 00:02:26;;;;;;;31.92;5.75;;;;;;;;;;4999124;28;20434;-59
2022/01/30 00:04:51;;;;;;;33.65;6.00;;;;;;;;;;4988586;28;20555;-59
2022/01/30 00:07:17;;;;;;;39.03;6.63;;;;;;;;;;4997840;28;20072;-58
2022/01/30 00:09:42;;;;;;;34.80;7.15;;;;;;;;;;5002182;28;20037;-59
2022/01/30 00:12:09;;;;;;;33.97;7.43;;;;;;;;;;4980595;28;20041;-58
2022/01/30 00:14:37;;;;;;;43.97;6.57;;;;;;;;;;5005192;28;20058;-58
2022/01/30 00:17:20;;;;;;;48.50;8.13;;;;;;;;;;5004940;28;20040;-58
2022/01/30 00:19:52;;;;;;;19.33;5.30;;;;;;;;;;5000940;28;20033;-58
2022/01/30 00:22:26;;;;;;;37.25;5.90;;;;;;;;;;5000799;28;20030;-58
2022/01/30 00:27:21;;;;;;;34.85;7.50;;;;;;;;;;5000080;28;20063;-59
2022/01/30 00:29:47;;;;;;;30.48;6.65;;;;;;;;;;5005687;28;20061;-59
2022/01/30 00:32:13;;;;;;;29.98;5.15;;;;;;;;;;5001653;28;20424;-59
2022/01/30 00:34:38;;;;;;;32.97;5.55;;;;;;;;;;5003656;28;20042;-59
2022/01/30 00:37:04;;;;;;;30.60;5.28;;;;;;;;;;5001644;28;20096;-59
2022/01/30 00:39:30;;;;;;;32.85;5.10;;;;;;;;;;5004224;28;20033;-59
2022/01/30 00:41:55;;;;;;;31.08;4.80;;;;;;;;;;5002682;28;20038;-58
2022/01/30 00:44:21;;;;;;;25.05;5.15;;;;;;;;;;5002790;28;20029;-58
2022/01/30 00:46:47;;;;;;;33.05;4.47;;;;;;;;;;5006161;28;20021;-58
2022/01/30 00:49:13;;;;;;;30.80;4.40;;;;;;;;;;5004119;28;20029;-59
2022/01/30 00:51:39;;;;;;;35.15;5.22;;;;;;;;;;4998738;28;20097;-61
2022/01/30 00:54:05;;;;;;;38.72;6.75;;;;;;;;;;5003157;28;20581;-58
2022/01/30 00:56:31;;;;;;;23.20;6.10;;;;;;;;;;5001750;28;20036;-60
2022/01/30 00:58:56;;;;;;;32.33;5.57;;;;;;;;;;5003389;28;20472;-59
2022/01/30 01:01:21;;;;;;;37.78;6.60;;;;;;;;;;4997441;28;20041;-60
2022/01/30 01:03:47;;;;;;;35.53;6.30;;;;;;;;;;4985225;28;20042;-59
2022/01/30 01:06:12;;;;;;;20.90;6.32;;;;;;;;;;5000538;28;20041;-59
2022/01/30 01:08:56;;;;;;;28.77;5.40;;;;;;;;;;5003005;28;20026;-60
2022/01/30 01:24:16;;;;;;;33.67;6.82;;;;;;;;;;5002631;28;20041;-59
2022/01/30 01:26:42;;;;;;;18.13;5.18;;;;;;;;;;5000014;28;20057;-59
2022/01/30 01:29:08;;;;;;;34.85;5.38;;;;;;;;;;5002292;28;20113;-59
2022/01/30 01:31:34;;;;;;;19.75;3.92;;;;;;;;;;5000206;28;20034;-60
2022/01/30 01:36:31;;;;;;;30.98;4.70;;;;;;;;;;5001390;28;20512;-60
2022/01/30 01:38:56;;;;;;;24.95;4.07;;;;;;;;;;5000273;28;20093;-60
2022/01/30 01:41:24;;;;;;;32.58;4.55;;;;;;;;;;4998830;28;20045;-59
2022/01/30 01:43:50;;;;;;;33.50;5.38;;;;;;;;;;5001118;28;20107;-59
2022/01/30 01:46:27;;;;;;;29.02;4.22;;;;;;;;;;5001530;28;20042;-59
2022/01/30 01:48:53;;;;;;;20.65;4.40;;;;;;;;;;5002719;28;20096;-59
2022/01/30 01:51:30;;;;;;;24.13;4.13;;;;;;;;;;5002721;28;20034;-59
2022/01/30 01:53:57;;;;;;;27.58;5.32;;;;;;;;;;5003277;28;20025;-59
2022/01/30 01:56:24;;;;;;;28.38;4.60;;;;;;;;;;5004738;28;20467;-59
2022/01/30 01:58:50;;;;;;;29.10;3.58;;;;;;;;;;4986655;28;20033;-59
2022/01/30 02:01:15;;;;;;;22.73;4.28;;;;;;;;;;5001863;28;20087;-59
2022/01/30 02:03:43;;;;;;;19.05;4.30;;;;;;;;;;5002648;28;20580;-59
2022/01/30 02:06:12;;;;;;;23.23;3.80;;;;;;;;;;5001782;28;20096;-59
2022/01/30 02:11:32;;;;;;;24.58;3.67;;;;;;;;;;4998989;28;20034;-59
2022/01/30 02:27:37;;;;;;;21.88;3.42;;;;;;;;;;5006093;28;20052;-58
2022/01/30 02:30:13;;;;;;;33.67;4.00;;;;;;;;;;5001153;28;20062;-58
2022/01/30 02:32:39;;;;;;;22.48;3.25;;;;;;;;;;5004845;28;20032;-58
2022/01/30 02:35:05;;;;;;;31.45;3.63;;;;;;;;;;5001198;28;20034;-58
2022/01/30 02:37:30;;;;;;;25.60;3.83;;;;;;;;;;5004138;28;20037;-58
2022/01/30 02:39:56;;;;;;;21.98;3.90;;;;;;;;;;5005420;28;20030;-58
2022/01/30 02:42:25;;;;;;;15.23;2.58;;;;;;;;;;5006130;28;20022;-58
2022/01/30 02:44:55;;;;;;;21.77;3.17;;;;;;;;;;5004028;28;20050;-59
2022/01/30 02:47:42;;;;;;;30.33;3.28;;;;;;;;;;5005046;28;20333;-58
2022/01/30 02:50:20;;;;;;;18.00;2.85;;;;;;;;;;5003636;28;20401;-59
2022/01/30 02:52:55;;;;;;;23.30;3.35;;;;;;;;;;5003856;28;20036;-58
2022/01/30 02:55:22;;;;;;;20.10;2.67;;;;;;;;;;5005943;28;20065;-58
2022/01/30 02:57:47;;;;;;;21.98;2.55;;;;;;;;;;5004942;28;20508;-58
2022/01/30 03:00:13;;;;;;;27.33;2.88;;;;;;;;;;5008487;28;20046;-58
2022/01/30 03:02:39;;;;;;;22.80;3.35;;;;;;;;;;5003454;28;20038;-58
2022/01/30 03:05:05;;;;;;;13.15;2.20;;;;;;;;;;4986273;28;20555;-59
2022/01/30 03:07:30;;;;;;;22.88;2.67;;;;;;;;;;5004774;28;20096;-58
2022/01/30 03:09:56;;;;;;;15.15;2.13;;;;;;;;;;5004623;28;20071;-58
2022/01/30 03:12:22;;;;;;;20.88;2.92;;;;;;;;;;5004493;28;20034;-59
2022/01/30 03:14:47;;;;;;;25.67;3.72;;;;;;;;;;5004831;28;20505;-59
2022/01/30 03:17:13;;;;;;;16.38;2.58;;;;;;;;;;5005129;28;20472;-58
2022/01/30 03:19:38;;;;;;;25.20;2.92;;;;;;;;;;5005714;28;20040;-59
2022/01/30 03:22:04;;;;;;;27.08;3.78;;;;;;;;;;5002778;28;20425;-58
2022/01/30 03:24:35;;;;;;;23.65;3.88;;;;;;;;;;5005188;28;20124;-58
2022/01/30 03:27:01;;;;;;;21.55;3.63;;;;;;;;;;5000105;28;20038;-58
2022/01/30 03:29:26;;;;;;;24.25;3.08;;;;;;;;;;5002927;28;20080;-59
2022/01/30 03:31:52;;;;;;;23.08;3.92;;;;;;;;;;5004321;28;20096;-59
2022/01/30 03:34:17;;;;;;;28.30;3.63;;;;;;;;;;5006730;28;20038;-59
2022/01/30 03:36:43;;;;;;;23.88;4.05;;;;;;;;;;5005583;28;20117;-58
2022/01/30 03:39:08;;;;;;;31.10;4.05;;;;;;;;;;4987567;28;20052;-58
2022/01/30 03:41:34;;;;;;;26.10;4.57;;;;;;;;;;5003166;28;20041;-58
2022/01/30 03:43:59;;;;;;;24.38;4.53;;;;;;;;;;5005187;28;20524;-59
2022/01/30 03:46:25;;;;;;;24.92;4.97;;;;;;;;;;4998997;28;20034;-58
2022/01/30 03:48:51;;;;;;;20.67;4.07;;;;;;;;;;5000141;28;20069;-58
2022/01/30 03:51:16;;;;;;;25.27;3.55;;;;;;;;;;5001757;28;20033;-58
2022/01/30 03:53:42;;;;;;;21.42;2.75;;;;;;;;;;5005970;28;20021;-58
2022/01/30 03:56:09;;;;;;;29.20;3.17;;;;;;;;;;5001874;28;20517;-58
2022/01/30 03:58:35;;;;;;;21.90;3.20;;;;;;;;;;5002164;28;20053;-58
2022/01/30 04:01:00;;;;;;;20.48;3.92;;;;;;;;;;5005877;28;20025;-59
2022/01/30 04:03:26;;;;;;;20.65;3.50;;;;;;;;;;5005442;28;20022;-59
2022/01/30 04:05:51;;;;;;;23.52;3.40;;;;;;;;;;5006910;28;20045;-59
2022/01/30 04:08:17;;;;;;;21.17;2.83;;;;;;;;;;5003613;28;20032;-59
2022/01/30 04:10:43;;;;;;;28.67;3.25;;;;;;;;;;5004945;28;20045;-59
2022/01/30 04:13:09;;;;;;;18.80;3.65;;;;;;;;;;5002533;28;20046;-59
2022/01/30 04:15:35;;;;;;;16.48;2.63;;;;;;;;;;4985599;28;20044;-59
2022/01/30 04:18:02;;;;;;;21.90;3.05;;;;;;;;;;5001663;28;20403;-59
2022/01/30 04:20:28;;;;;;;21.95;3.33;;;;;;;;;;5005423;28;20022;-59
2022/01/30 04:22:54;;;;;;;14.20;3.25;;;;;;;;;;5005282;28;20046;-59
2022/01/30 04:25:19;;;;;;;23.00;2.70;;;;;;;;;;5002111;28;20030;-59
2022/01/30 04:27:45;;;;;;;18.80;2.63;;;;;;;;;;4997115;28;20033;-59
2022/01/30 04:30:11;;;;;;;28.50;2.83;;;;;;;;;;5006622;28;20072;-59
2022/01/30 04:32:42;;;;;;;42.80;3.78;;;;;;;;;;5003097;28;20490;-59
2022/01/30 04:35:21;;;;;;;37.35;4.88;;;;;;;;;;4988147;28;20033;-59
2022/01/30 05:04:52;;;;;;;23.08;3.13;;;;;;;;;;4980554;28;20042;-60
2022/01/30 05:09:44;;;;;;;30.42;3.10;;;;;;;;;;5001822;28;20483;-59
2022/01/30 05:12:11;;;;;;;25.50;4.13;;;;;;;;;;5002952;28;20697;-59
2022/01/30 05:14:37;;;;;;;24.35;3.05;;;;;;;;;;5000075;28;20137;-59
2022/01/30 05:17:05;;;;;;;39.22;3.25;;;;;;;;;;4996282;28;20087;-59
2022/01/30 05:19:31;;;;;;;20.42;2.90;;;;;;;;;;5004057;28;20056;-59
2022/01/30 05:21:57;;;;;;;24.35;2.70;;;;;;;;;;5000587;28;20034;-59
2022/01/30 05:24:23;;;;;;;19.02;2.97;;;;;;;;;;4994416;28;20037;-59
2022/01/30 05:26:50;;;;;;;34.25;3.80;;;;;;;;;;5001980;28;20036;-58
2022/01/30 05:29:16;;;;;;;26.77;3.08;;;;;;;;;;5004059;28;20137;-58
2022/01/30 05:31:43;;;;;;;35.97;3.78;;;;;;;;;;5004237;28;20033;-58
2022/01/30 05:34:09;;;;;;;22.45;4.03;;;;;;;;;;5000197;28;20042;-59
2022/01/30 05:36:38;;;;;;;32.97;3.97;;;;;;;;;;5005245;28;20033;-60
2022/01/30 05:39:04;;;;;;;32.25;3.90;;;;;;;;;;5004732;28;20820;-59
2022/01/30 05:41:31;;;;;;;25.73;3.28;;;;;;;;;;5000553;28;20030;-59
2022/01/30 05:43:59;;;;;;;20.27;3.20;;;;;;;;;;5002061;28;20041;-59
2022/01/30 05:46:32;;;;;;;37.03;4.43;;;;;;;;;;5002538;28;20332;-60
2022/01/30 05:48:58;;;;;;;15.20;3.15;;;;;;;;;;5001219;28;20032;-59
2022/01/30 05:51:24;;;;;;;19.85;3.00;;;;;;;;;;5000898;28;20038;-59
2022/01/30 05:53:49;;;;;;;29.50;3.95;;;;;;;;;;4999704;28;20654;-59
2022/01/30 05:56:15;;;;;;;27.35;3.38;;;;;;;;;;5006812;28;20061;-59
2022/01/30 05:58:41;;;;;;;27.20;2.80;;;;;;;;;;5007991;28;20030;-59
2022/01/30 06:01:06;;;;;;;24.65;3.10;;;;;;;;;;5009302;28;20034;-59
2022/01/30 06:03:32;;;;;;;16.83;2.78;;;;;;;;;;5006632;28;20033;-59
2022/01/30 06:05:58;;;;;;;24.45;3.45;;;;;;;;;;5006284;28;20165;-60
2022/01/30 06:08:42;;;;;;;21.23;3.03;;;;;;;;;;4997182;28;20560;-59
2022/01/30 06:11:09;;;;;;;20.35;3.42;;;;;;;;;;5003930;28;20133;-60
2022/01/30 06:13:34;;;;;;;23.48;2.97;;;;;;;;;;5005425;28;20045;-60
2022/01/30 06:16:00;;;;;;;26.10;2.92;;;;;;;;;;5003120;28;20068;-60
2022/01/30 06:18:26;;;;;;;18.73;3.10;;;;;;;;;;4988454;28;20038;-60
2022/01/30 06:20:52;;;;;;;19.25;2.85;;;;;;;;;;5003707;28;20030;-59
2022/01/30 06:23:18;;;;;;;27.38;4.22;;;;;;;;;;4985801;28;20559;-59
2022/01/30 06:25:43;;;;;;;27.30;3.75;;;;;;;;;;5005178;28;20457;-59
2022/01/30 06:28:09;;;;;;;25.63;3.40;;;;;;;;;;5002544;28;20092;-60
2022/01/30 06:30:34;;;;;;;24.13;2.85;;;;;;;;;;5001030;28;20056;-59
2022/01/30 06:33:00;;;;;;;23.83;3.30;;;;;;;;;;4987995;28;20034;-60
2022/01/30 06:35:26;;;;;;;24.45;3.00;;;;;;;;;;4986934;28;20030;-60
2022/01/30 06:37:51;;;;;;;22.05;3.85;;;;;;;;;;5009221;28;20034;-59
2022/01/30 06:40:17;;;;;;;22.60;3.20;;;;;;;;;;4987087;28;20489;-59
2022/01/30 06:42:42;;;;;;;25.25;3.63;;;;;;;;;;5004218;28;20187;-59
2022/01/30 06:45:08;;;;;;;29.08;3.78;;;;;;;;;;5008117;28;20037;-59
2022/01/30 06:47:41;;;;;;;19.92;3.60;;;;;;;;;;5003698;28;20033;-60
2022/01/30 06:50:07;;;;;;;22.30;3.45;;;;;;;;;;5008270;28;20220;-59
2022/01/30 06:52:33;;;;;;;19.60;3.13;;;;;;;;;;5005721;28;20048;-59
2022/01/30 06:54:58;;;;;;;18.00;4.53;;;;;;;;;;5006400;28;20041;-59
2022/01/30 06:57:24;;;;;;;21.05;4.00;;;;;;;;;;5004613;28;20448;-59
2022/01/30 06:59:49;;;;;;;25.13;5.45;;;;;;;;;;5000662;28;20040;-59
2022/01/30 07:02:15;;;;;;;39.00;6.35;;;;;;;;;;4986619;28;20048;-59
2022/01/30 07:04:40;;;;;;;39.28;7.72;;;;;;;;;;5004712;28;20022;-60
2022/01/30 07:07:06;;;;;;;50.42;8.32;;;;;;;;;;5002341;28;20022;-60
2022/01/30 07:09:32;;;;;;;65.97;11.80;;;;;;;;;;5000530;28;20730;-59
2022/01/30 07:11:58;;;;;;;54.60;8.55;;;;;;;;;;5002080;28;20165;-59
2022/01/30 07:14:23;;;;;;;50.97;9.60;;;;;;;;;;5002922;28;20173;-59
2022/01/30 07:16:49;;;;;;;37.15;8.77;;;;;;;;;;5000245;28;20145;-59
2022/01/30 07:19:14;;;;;;;38.90;8.30;;;;;;;;;;5002887;28;20037;-59
2022/01/30 07:21:40;;;;;;;57.67;8.20;;;;;;;;;;5002386;28;20046;-59
2022/01/30 07:24:06;;;;;;;43.13;7.75;;;;;;;;;;5006359;28;20448;-59
2022/01/30 07:26:32;;;;;;;40.15;7.90;;;;;;;;;;5007308;28;20157;-59
2022/01/30 07:28:59;;;;;;;40.33;8.35;;;;;;;;;;5002471;28;20030;-59
2022/01/30 07:31:24;;;;;;;41.42;7.93;;;;;;;;;;5002819;28;20133;-59
2022/01/30 07:33:50;;;;;;;29.58;6.18;;;;;;;;;;5002140;28;20030;-59
2022/01/30 07:36:15;;;;;;;28.88;5.72;;;;;;;;;;4998669;28;20571;-59
2022/01/30 07:38:41;;;;;;;26.90;4.95;;;;;;;;;;5000224;28;20065;-59
2022/01/30 07:41:07;;;;;;;28.80;5.38;;;;;;;;;;5006654;28;20072;-59
2022/01/30 07:43:34;;;;;;;24.92;4.78;;;;;;;;;;5001381;28;20453;-59
2022/01/30 07:46:00;;;;;;;41.90;4.93;;;;;;;;;;5001024;28;20508;-59
2022/01/30 07:48:25;;;;;;;28.00;4.45;;;;;;;;;;5001500;28;20089;-59
2022/01/30 07:50:51;;;;;;;27.95;3.97;;;;;;;;;;4997830;28;20129;-59
2022/01/30 07:53:17;;;;;;;20.83;3.50;;;;;;;;;;5003232;28;20033;-59
2022/01/30 07:55:42;;;;;;;24.70;4.05;;;;;;;;;;4998860;28;20037;-59
2022/01/30 07:58:10;;;;;;;27.55;3.63;;;;;;;;;;5001441;28;20048;-59
2022/01/30 08:00:36;;;;;;;24.33;4.40;;;;;;;;;;5001157;28;20393;-59
2022/01/30 08:03:03;;;;;;;16.33;3.40;;;;;;;;;;5003017;28;20516;-60
2022/01/30 08:05:28;;;;;;;18.02;3.88;;;;;;;;;;4997897;28;20541;-59
2022/01/30 08:07:54;;;;;;;34.25;4.50;;;;;;;;;;5004066;28;20061;-60
2022/01/30 08:10:20;;;;;;;23.13;3.78;;;;;;;;;;5003121;28;20184;-60
2022/01/30 08:12:45;;;;;;;18.45;3.50;;;;;;;;;;5002078;28;20050;-60
2022/01/30 08:15:11;;;;;;;20.20;3.40;;;;;;;;;;5002375;28;20411;-59
2022/01/30 08:17:37;;;;;;;14.88;3.60;;;;;;;;;;4979963;28;20121;-60
2022/01/30 08:20:05;;;;;;;37.00;4.70;;;;;;;;;;4997548;28;20065;-60
2022/01/30 08:22:31;;;;;;;22.90;3.83;;;;;;;;;;5003318;28;20095;-60
2022/01/30 08:24:57;;;;;;;30.67;3.45;;;;;;;;;;4999062;28;20436;-59
2022/01/30 08:27:23;;;;;;;24.30;3.50;;;;;;;;;;4997650;28;20025;-60
2022/01/30 08:29:48;;;;;;;35.95;3.83;;;;;;;;;;4985080;28;20414;-60
2022/01/30 08:32:14;;;;;;;24.88;3.30;;;;;;;;;;4998662;28;20034;-60
2022/01/30 08:34:40;;;;;;;20.88;3.22;;;;;;;;;;5003488;28;20037;-60
2022/01/30 08:37:14;;;;;;;11.35;2.25;;;;;;;;;;5034781;28;20420;-60
2022/01/30 08:39:39;;;;;;;19.30;2.28;;;;;;;;;;5031160;28;20095;-60
2022/01/30 08:42:05;;;;;;;28.48;2.88;;;;;;;;;;5037886;28;20036;-60
2022/01/30 08:44:31;;;;;;;16.42;1.92;;;;;;;;;;5027749;28;20029;-59
2022/01/30 08:46:56;;;;;;;37.63;2.75;;;;;;;;;;5037269;28;20025;-61
2022/01/30 08:49:22;;;;;;;27.17;2.97;;;;;;;;;;5028927;28;20088;-59
2022/01/30 08:51:47;;;;;;;18.33;2.10;;;;;;;;;;5029352;28;20029;-58
2022/01/30 08:54:13;;;;;;;25.50;1.92;;;;;;;;;;5028297;28;20025;-58
2022/01/30 08:56:38;;;;;;;17.73;1.52;;;;;;;;;;5032268;28;20672;-57
2022/01/30 08:59:04;;;;;;;23.90;2.33;;;;;;;;;;5033950;28;20095;-59
2022/01/30 09:01:32;;;;;;;16.10;1.40;;;;;;;;;;5033237;28;20025;-60
2022/01/30 09:03:59;;;;;;;18.30;2.10;;;;;;;;;;5029790;28;20516;-58
2022/01/30 09:06:25;;;;;;;25.10;1.23;;;;;;;;;;5033166;28;20029;-58
2022/01/30 09:08:50;;;;;;;12.98;1.60;;;;;;;;;;5031990;28;20092;-59
2022/01/30 09:11:16;;;;;;;12.05;1.52;;;;;;;;;;5021840;28;20030;-58
2022/01/30 09:13:42;;;;;;;19.42;0.90;;;;;;;;;;5018388;28;20029;-58
2022/01/30 09:16:07;;;;;;;29.13;1.80;;;;;;;;;;5017956;28;20029;-58
2022/01/30 09:18:37;;;;;;;15.25;1.10;;;;;;;;;;5011879;28;20030;-59
2022/01/30 09:21:03;;;;;;;17.70;1.50;;;;;;;;;;5017740;28;20374;-58
2022/01/30 09:23:29;;;;;;;15.82;1.58;;;;;;;;;;5027067;28;20049;-58
2022/01/30 09:25:55;;;;;;;11.77;1.02;;;;;;;;;;5017421;28;20572;-58
2022/01/30 09:28:20;;;;;;;20.42;2.90;;;;;;;;;;5018223;28;20027;-58
2022/01/30 09:30:46;;;;;;;18.02;1.35;;;;;;;;;;5018236;28;20382;-58
2022/01/30 09:33:11;;;;;;;22.92;1.73;;;;;;;;;;5021017;28;20484;-58
2022/01/30 09:35:37;;;;;;;17.05;1.40;;;;;;;;;;5014019;28;20531;-58
2022/01/30 09:38:02;;;;;;;17.67;1.30;;;;;;;;;;5015918;28;20143;-58
2022/01/30 09:40:28;;;;;;;19.45;1.80;;;;;;;;;;5020403;28;20084;-58
2022/01/30 09:42:56;;;;;;;11.13;0.82;;;;;;;;;;5018165;28;20034;-58
2022/01/30 09:45:23;;;;;;;18.98;1.60;;;;;;;;;;5018201;28;20022;-58
2022/01/30 09:47:49;;;;;;;18.75;2.15;;;;;;;;;;5012178;28;20316;-58
2022/01/30 09:50:17;;;;;;;16.30;1.55;;;;;;;;;;5003478;28;20117;-58
2022/01/30 09:52:43;;;;;;;18.20;1.00;;;;;;;;;;4999661;28;20029;-58
2022/01/30 09:55:11;;;;;;;22.35;1.60;;;;;;;;;;5002818;28;20437;-58
2022/01/30 09:57:38;;;;;;;28.45;2.10;;;;;;;;;;5002111;28;20029;-58
2022/01/30 10:00:05;;;;;;;27.10;2.10;;;;;;;;;;5004989;28;20048;-58
2022/01/30 10:02:30;;;;;;;21.30;1.85;;;;;;;;;;5001956;28;20484;-58
2022/01/30 10:04:56;;;;;;;29.40;2.28;;;;;;;;;;5007427;28;20018;-58
2022/01/30 10:07:26;;;;;;;19.92;1.95;;;;;;;;;;5004637;28;20030;-59
2022/01/30 10:09:52;;;;;;;20.65;2.13;;;;;;;;;;5005816;28;20512;-58
2022/01/30 10:12:23;;;;;;;22.50;1.60;;;;;;;;;;5002647;28;20113;-58
2022/01/30 10:14:59;;;;;;;17.33;1.50;;;;;;;;;;5004308;28;20042;-58
2022/01/30 10:17:39;;;;;;;16.83;2.28;;;;;;;;;;5001330;28;20041;-58
2022/01/30 10:20:14;;;;;;;16.55;1.50;;;;;;;;;;5005098;28;20038;-58
2022/01/30 10:22:54;;;;;;;24.90;1.95;;;;;;;;;;5002594;28;20049;-59
2022/01/30 10:25:40;;;;;;;20.27;1.35;;;;;;;;;;5000416;28;20049;-58
2022/01/30 10:28:10;;;;;;;43.05;2.45;;;;;;;;;;5005294;28;20030;-58
2022/01/30 10:30:47;;;;;;;26.77;2.08;;;;;;;;;;5002324;28;20087;-58
2022/01/30 10:33:15;;;;;;;18.75;1.85;;;;;;;;;;5003118;28;20057;-58
2022/01/30 10:35:52;;;;;;;25.33;1.63;;;;;;;;;;5005563;28;20050;-59
2022/01/30 10:38:30;;;;;;;12.13;1.30;;;;;;;;;;4997536;28;20026;-58
2022/01/30 10:41:00;;;;;;;14.10;1.50;;;;;;;;;;5004201;28;20105;-58
2022/01/30 10:43:50;;;;;;;30.52;2.50;;;;;;;;;;5000878;28;20157;-58
2022/01/30 10:46:28;;;;;;;14.52;1.67;;;;;;;;;;5004229;28;20068;-58
2022/01/30 10:48:59;;;;;;;11.48;1.33;;;;;;;;;;4997364;28;20029;-58
2022/01/30 10:51:27;;;;;;;18.88;1.48;;;;;;;;;;5002176;28;20704;-58
2022/01/30 10:53:52;;;;;;;30.40;2.67;;;;;;;;;;5007015;28;20485;-58
2022/01/30 10:56:20;;;;;;;11.27;1.63;;;;;;;;;;5002451;28;20109;-58
2022/01/30 10:59:06;;;;;;;18.42;1.55;;;;;;;;;;4999352;28;20036;-58
2022/01/30 11:01:32;;;;;;;17.85;1.15;;;;;;;;;;4997370;28;20589;-58
2022/01/30 11:04:00;;;;;;;21.63;1.67;;;;;;;;;;4999634;28;20045;-59
2022/01/30 11:06:30;;;;;;;25.27;2.22;;;;;;;;;;5004677;28;20037;-58
2022/01/30 11:09:07;;;;;;;14.93;1.60;;;;;;;;;;5002652;28;20025;-58
2022/01/30 11:11:47;;;;;;;20.27;2.25;;;;;;;;;;5003747;28;20030;-59
2022/01/30 11:14:16;;;;;;;27.15;2.42;;;;;;;;;;5006457;28;20034;-58
2022/01/30 11:19:27;;;;;;;10.02;1.02;;;;;;;;;;5004002;28;20117;-58
2022/01/30 11:22:14;;;;;;;20.30;3.15;;;;;;;;;;5002282;28;20037;-59
2022/01/30 11:24:44;;;;;;;12.85;1.75;;;;;;;;;;4999629;28;20489;-59
2022/01/30 11:27:10;;;;;;;17.42;1.55;;;;;;;;;;5004681;28;20532;-58
2022/01/30 11:29:39;;;;;;;22.27;1.92;;;;;;;;;;5000589;28;20026;-59
2022/01/30 11:32:06;;;;;;;15.18;1.77;;;;;;;;;;5004626;28;20208;-58
2022/01/30 11:34:42;;;;;;;17.58;1.75;;;;;;;;;;5001315;28;20241;-59
2022/01/30 11:37:09;;;;;;;11.25;1.40;;;;;;;;;;5001738;28;20064;-58
2022/01/30 11:39:37;;;;;;;18.48;1.85;;;;;;;;;;5001581;28;20052;-58
2022/01/30 11:42:11;;;;;;;21.67;2.25;;;;;;;;;;5003468;28;20044;-58
2022/01/30 11:44:41;;;;;;;22.63;2.40;;;;;;;;;;5001324;28;20038;-58
2022/01/30 11:47:15;;;;;;;23.33;2.22;;;;;;;;;;4997719;28;20034;-58
2022/01/30 11:50:00;;;;;;;15.75;1.85;;;;;;;;;;4993849;28;20026;-58
2022/01/30 11:52:53;;;;;;;17.02;2.30;;;;;;;;;;5001563;28;20054;-58
2022/01/30 11:55:56;;;;;;;13.13;1.67;;;;;;;;;;5001578;28;20361;-58
2022/01/30 11:58:31;;;;;;;18.55;1.73;;;;;;;;;;4996269;28;20022;-58
2022/01/30 12:00:58;;;;;;;18.55;1.52;;;;;;;;;;5000234;28;20479;-58
2022/01/30 12:03:32;;;;;;;23.20;2.13;;;;;;;;;;5001857;28;20063;-58
2022/01/30 12:06:19;;;;;;;22.42;1.88;;;;;;;;;;4998984;28;20023;-59
2022/01/30 12:08:46;;;;;;;26.55;2.67;;;;;;;;;;5002339;28;20084;-59
2022/01/30 12:11:36;;;;;;;21.55;1.73;;;;;;;;;;5001033;28;20121;-59
2022/01/30 12:14:06;;;;;;;19.60;2.17;;;;;;;;;;5004234;28;20030;-59
2022/01/30 12:16:49;;;;;;;16.63;1.92;;;;;;;;;;5003150;28;20435;-58
2022/01/30 12:19:37;;;;;;;18.25;3.70;;;;;;;;;;5000155;28;20050;-59
2022/01/30 12:22:18;;;;;;;16.92;2.30;;;;;;;;;;5004274;28;20034;-59
2022/01/30 12:24:45;;;;;;;20.63;2.53;;;;;;;;;;5001801;28;20453;-58
2022/01/30 12:27:11;;;;;;;17.08;1.65;;;;;;;;;;5027145;28;20763;-59
2022/01/30 12:29:41;;;;;;;18.70;1.92;;;;;;;;;;5004613;28;20022;-58
2022/01/30 12:32:22;;;;;;;12.77;1.80;;;;;;;;;;5000707;28;20060;-59
2022/01/30 12:35:01;;;;;;;15.88;1.38;;;;;;;;;;5004103;28;20045;-60
2022/01/30 12:37:37;;;;;;;16.83;2.10;;;;;;;;;;5000573;28;20544;-60
2022/01/30 12:40:16;;;;;;;20.38;2.40;;;;;;;;;;5000060;28;20282;-60
2022/01/30 12:42:42;;;;;;;24.15;2.22;;;;;;;;;;4998359;28;20501;-60
2022/01/30 12:45:09;;;;;;;30.77;2.67;;;;;;;;;;5017722;28;20597;-60
2022/01/30 12:47:49;;;;;;;24.65;2.40;;;;;;;;;;4999763;28;20049;-60
2022/01/30 12:50:16;;;;;;;15.07;1.98;;;;;;;;;;4999543;28;20315;-60
2022/01/30 12:52:46;;;;;;;17.73;2.20;;;;;;;;;;4995073;28;20031;-60
2022/01/30 12:55:13;;;;;;;21.88;3.53;;;;;;;;;;4998755;28;20054;-60
2022/01/30 12:57:42;;;;;;;14.80;2.45;;;;;;;;;;5015353;28;20077;-60
2022/01/30 13:00:10;;;;;;;13.43;1.70;;;;;;;;;;4997004;28;20113;-61
2022/01/30 13:02:38;;;;;;;26.17;3.25;;;;;;;;;;5001135;28;20045;-60
2022/01/30 13:05:07;;;;;;;12.02;1.73;;;;;;;;;;4998420;28;20051;-60
2022/01/30 13:07:33;;;;;;;11.93;2.08;;;;;;;;;;5004704;28;20022;-60
2022/01/30 13:10:11;;;;;;;19.77;1.98;;;;;;;;;;5001779;28;20396;-60
2022/01/30 13:12:37;;;;;;;17.20;2.38;;;;;;;;;;4997047;28;20049;-60
2022/01/30 13:15:11;;;;;;;16.08;2.08;;;;;;;;;;5002503;28;20040;-60
2022/01/30 13:17:37;;;;;;;22.52;3.10;;;;;;;;;;4996076;28;20056;-59
2022/01/30 13:20:04;;;;;;;20.98;1.80;;;;;;;;;;4997753;28;20424;-59
2022/01/30 13:22:37;;;;;;;19.38;1.70;;;;;;;;;;5014470;28;20065;-59
2022/01/30 13:25:11;;;;;;;15.20;2.22;;;;;;;;;;5000982;28;20559;-60
2022/01/30 13:27:41;;;;;;;22.98;3.10;;;;;;;;;;5003006;28;20022;-59
2022/01/30 13:30:08;;;;;;;23.85;3.38;;;;;;;;;;4997775;28;20398;-60
2022/01/30 13:32:37;;;;;;;14.55;2.40;;;;;;;;;;5003149;28;20108;-60
2022/01/30 13:35:10;;;;;;;18.02;2.67;;;;;;;;;;5002990;28;20080;-59
2022/01/30 13:37:37;;;;;;;16.80;2.15;;;;;;;;;;5001504;28;20053;-60
2022/01/30 13:40:14;;;;;;;20.45;2.28;;;;;;;;;;5000491;28;20053;-59
2022/01/30 13:42:57;;;;;;;18.70;2.53;;;;;;;;;;5004732;28;20496;-60
2022/01/30 13:48:33;;;;;;;15.07;1.50;;;;;;;;;;4999066;28;20327;-58
2022/01/30 13:51:03;;;;;;;13.43;1.40;;;;;;;;;;5000508;28;20711;-58
2022/01/30 13:53:31;;;;;;;13.43;2.22;;;;;;;;;;5005103;28;20073;-57
2022/01/30 13:56:06;;;;;;;8.80;1.70;;;;;;;;;;5000618;28;20034;-58
2022/01/30 13:58:41;;;;;;;10.98;1.85;;;;;;;;;;4999160;28;20092;-57
2022/01/30 14:01:14;;;;;;;13.15;1.77;;;;;;;;;;5004288;28;20040;-57
2022/01/30 14:03:42;;;;;;;11.13;1.38;;;;;;;;;;5004901;28;20068;-60
2022/01/30 14:06:26;;;;;;;7.75;1.73;;;;;;;;;;5001672;28;20021;-57
2022/01/30 14:08:51;;;;;;;12.02;1.65;;;;;;;;;;4997222;28;20040;-58
2022/01/30 14:11:19;;;;;;;11.48;1.60;;;;;;;;;;5000291;28;20033;-58
2022/01/30 14:13:44;;;;;;;6.80;1.23;;;;;;;;;;4997840;28;20036;-56
2022/01/30 14:16:18;;;;;;;7.88;1.40;;;;;;;;;;4999741;28;20435;-58
2022/01/30 14:18:54;;;;;;;7.90;1.45;;;;;;;;;;4999841;28;20030;-59
2022/01/30 14:21:23;;;;;;;2.47;0.40;;;;;;;;;;5001691;28;20482;-58
2022/01/30 14:23:48;;;;;;;6.03;1.15;;;;;;;;;;4999865;28;20021;-58
2022/01/30 14:26:29;;;;;;;7.72;0.70;;;;;;;;;;5003772;28;20448;-58
2022/01/30 14:29:20;;;;;;;5.82;1.20;;;;;;;;;;4999288;28;20401;-58
2022/01/30 14:31:55;;;;;;;4.78;1.30;;;;;;;;;;5003450;28;20120;-58
2022/01/30 14:34:25;;;;;;;5.75;2.22;;;;;;;;;;5003457;28;20065;-58
2022/01/30 14:36:54;;;;;;;7.13;1.70;;;;;;;;;;5001578;28;20425;-59
2022/01/30 14:39:20;;;;;;;7.53;1.83;;;;;;;;;;4997079;28;20297;-58
2022/01/30 14:41:46;;;;;;;6.60;1.17;;;;;;;;;;5002774;28;20076;-54
2022/01/30 14:44:11;;;;;;;6.13;1.38;;;;;;;;;;5005057;28;20784;-57
2022/01/30 14:46:37;;;;;;;12.63;1.35;;;;;;;;;;4995774;28;20025;-55
2022/01/30 14:49:02;;;;;;;5.32;1.02;;;;;;;;;;5002676;28;20041;-55
2022/01/30 14:51:28;;;;;;;10.57;1.58;;;;;;;;;;5007255;28;20033;-53
2022/01/30 14:53:54;;;;;;;6.68;0.95;;;;;;;;;;4999854;28;20586;-56
2022/01/30 14:56:19;;;;;;;12.18;2.00;;;;;;;;;;4994858;28;20126;-55
2022/01/30 14:58:45;;;;;;;8.32;1.55;;;;;;;;;;4998534;28;20042;-54
2022/01/30 15:01:10;;;;;;;8.45;1.02;;;;;;;;;;4999739;28;20030;-58
2022/01/30 15:03:36;;;;;;;7.10;1.30;;;;;;;;;;5000686;28;20072;-57
2022/01/30 15:06:01;;;;;;;5.55;1.02;;;;;;;;;;4999489;28;20497;-57
2022/01/30 15:08:27;;;;;;;8.70;1.58;;;;;;;;;;5000867;28;20049;-58
2022/01/30 15:10:52;;;;;;;2.13;0.73;;;;;;;;;;5001502;28;20545;-56
2022/01/30 15:13:20;;;;;;;9.10;1.00;;;;;;;;;;4995258;28;20038;-59
2022/01/30 15:15:46;;;;;;;6.05;0.82;;;;;;;;;;5002555;28;20022;-55
2022/01/30 15:18:20;;;;;;;8.23;1.15;;;;;;;;;;5000314;28;20076;-58
2022/01/30 15:20:47;;;;;;;3.67;1.15;;;;;;;;;;5005903;28;20460;-57
2022/01/30 15:23:12;;;;;;;6.45;1.15;;;;;;;;;;5002889;28;20030;-57
2022/01/30 15:25:38;;;;;;;9.95;1.50;;;;;;;;;;4998984;28;20138;-56
2022/01/30 15:28:03;;;;;;;5.13;0.90;;;;;;;;;;4998007;28;20042;-56
2022/01/30 15:30:29;;;;;;;7.60;1.50;;;;;;;;;;5002868;28;20161;-54
2022/01/30 15:32:55;;;;;;;6.85;1.02;;;;;;;;;;5002886;28;20450;-55
2022/01/30 15:35:20;;;;;;;8.63;0.88;;;;;;;;;;5006854;28;20238;-58
2022/01/30 15:37:46;;;;;;;5.45;0.98;;;;;;;;;;4997605;28;20038;-56
2022/01/30 15:40:13;;;;;;;9.88;1.08;;;;;;;;;;5003344;28;20044;-58
2022/01/30 15:42:39;;;;;;;5.55;1.40;;;;;;;;;;5000793;28;20117;-59
2022/01/30 15:50:16;;;;;;;4.90;1.20;;;;;;;;;;4996688;28;20045;-58
2022/01/30 15:52:42;;;;;;;6.47;1.67;;;;;;;;;;5001600;28;20053;-57
2022/01/30 15:55:08;;;;;;;9.57;1.88;;;;;;;;;;4989096;28;20041;-56